Time;durP1;ratioP1;P1;durP2;ratioP2;P2;SDS_P1;SDS_P2;PMS_P1;PMS_P2;Temp;Humidity;BMP_temperature;BMP_pressure;BME280_temperature;BME280_humidity;BME280_pressure;Samples;Min_cycle;Max_cycle;Signal;HPM_P1;HPM_P2
2023/02/21 02:14:24;;;;;;;13.67;5.00;;;;;;;9.22;100.00;100603.81;5053673;28;20437;-69
2023/02/21 02:17:01;;;;;;;11.47;4.27;;;;;;;9.35;100.00;100604.97;5054160;28;20530;-70
2023/02/21 02:20:07;;;;;;;11.53;4.90;;;;;;;9.37;100.00;100597.38;5053842;28;20422;-70
2023/02/21 02:22:56;;;;;;;10.87;4.70;;;;;;;9.41;100.00;100605.69;5053917;28;20448;-69
2023/02/21 02:25:38;;;;;;;14.33;4.80;;;;;;;9.43;100.00;100611.59;5054162;28;20801;-69
2023/02/21 02:28:18;;;;;;;14.70;5.63;;;;;;;9.49;100.00;100607.75;5053980;28;20466;-69
2023/02/21 02:31:23;;;;;;;13.53;4.87;;;;;;;9.48;100.00;100601.53;5053672;28;20926;-69
2023/02/21 02:34:50;;;;;;;15.07;5.47;;;;;;;9.50;100.00;100606.66;5053598;28;20472;-70
2023/02/21 02:37:24;;;;;;;13.60;4.70;;;;;;;9.45;100.00;100614.84;5006504;28;20545;-69
2023/02/21 02:39:59;;;;;;;13.00;5.57;;;;;;;9.51;100.00;100606.34;5053836;28;20435;-70
2023/02/21 02:42:46;;;;;;;16.73;6.60;;;;;;;9.56;100.00;100595.47;5053814;28;20426;-69
2023/02/21 02:45:17;;;;;;;21.57;5.07;;;;;;;9.51;100.00;100597.44;5053725;28;20427;-69
2023/02/21 02:47:48;;;;;;;15.33;5.20;;;;;;;9.49;100.00;100600.44;5053585;28;20553;-70
2023/02/21 02:50:17;;;;;;;14.83;5.13;;;;;;;9.51;100.00;100597.44;5053373;28;20427;-69
2023/02/21 02:52:50;;;;;;;14.00;5.40;;;;;;;9.52;100.00;100605.25;5053526;28;20448;-69
2023/02/21 02:55:36;;;;;;;11.07;4.20;;;;;;;9.56;100.00;100600.06;5053634;28;20427;-69
2023/02/21 02:58:05;;;;;;;13.60;6.03;;;;;;;9.59;100.00;100610.28;5053529;28;20458;-69
2023/02/21 03:00:33;;;;;;;13.53;5.50;;;;;;;9.59;100.00;100607.59;5053121;28;20496;-69
2023/02/21 03:03:33;;;;;;;15.23;5.73;;;;;;;9.68;100.00;100594.19;5053046;28;20556;-69
2023/02/21 03:06:21;;;;;;;15.60;6.10;;;;;;;9.62;100.00;100587.28;5052990;28;20438;-69
2023/02/21 03:08:53;;;;;;;19.13;5.87;;;;;;;9.66;100.00;100594.50;5053310;28;20483;-69
2023/02/21 03:11:23;;;;;;;12.10;4.60;;;;;;;9.69;100.00;100588.50;5052978;28;20517;-69
2023/02/21 03:13:56;;;;;;;11.87;4.77;;;;;;;9.77;100.00;100573.50;5053187;28;20743;-69
2023/02/21 03:16:26;;;;;;;13.73;5.60;;;;;;;9.71;100.00;100591.72;5053282;28;20423;-66
2023/02/21 03:18:58;;;;;;;13.80;4.90;;;;;;;9.69;100.00;100585.78;5053147;28;20446;-68
2023/02/21 03:21:29;;;;;;;15.77;5.33;;;;;;;9.76;100.00;100588.94;5053147;28;20509;-69
2023/02/21 03:24:00;;;;;;;13.77;6.27;;;;;;;9.82;100.00;100585.03;5052460;28;20488;-69
2023/02/21 03:26:29;;;;;;;13.83;5.40;;;;;;;9.84;100.00;100609.91;5052656;28;20466;-69
2023/02/21 03:28:56;;;;;;;13.13;4.90;;;;;;;9.90;100.00;100582.75;5052793;28;20947;-69
2023/02/21 03:31:28;;;;;;;14.30;6.00;;;;;;;9.92;100.00;100577.88;5052759;28;20545;-69
2023/02/21 03:33:55;;;;;;;16.23;5.10;;;;;;;9.93;100.00;100590.28;5052687;28;20462;-69
2023/02/21 03:36:23;;;;;;;13.10;6.10;;;;;;;9.85;100.00;100592.56;5053049;28;20464;-69
2023/02/21 03:38:51;;;;;;;11.40;5.00;;;;;;;9.81;100.00;100596.97;5053054;28;20528;-69
2023/02/21 03:41:17;;;;;;;12.23;4.77;;;;;;;9.75;100.00;100586.53;5052988;28;20450;-69
2023/02/21 03:43:44;;;;;;;10.90;4.37;;;;;;;9.82;100.00;100597.75;5052490;28;20870;-69
2023/02/21 03:46:10;;;;;;;11.73;4.67;;;;;;;9.79;100.00;100596.47;5052454;28;20481;-69
2023/02/21 03:48:37;;;;;;;10.97;4.80;;;;;;;9.84;100.00;100590.97;5052659;28;20489;-69
2023/02/21 03:51:04;;;;;;;16.63;5.90;;;;;;;9.85;100.00;100594.47;5052928;28;20446;-69
2023/02/21 03:53:31;;;;;;;10.47;4.73;;;;;;;9.90;100.00;100593.56;5052762;28;20459;-69
2023/02/21 03:55:59;;;;;;;11.50;4.50;;;;;;;9.96;100.00;100584.25;5052516;28;20826;-69
2023/02/21 03:58:25;;;;;;;11.33;4.33;;;;;;;9.98;100.00;100584.78;5052771;28;20434;-69
2023/02/21 04:00:52;;;;;;;12.63;4.87;;;;;;;9.93;100.00;100591.09;5052771;28;20497;-68
2023/02/21 04:03:19;;;;;;;10.90;3.97;;;;;;;10.02;100.00;100593.91;5052424;28;20970;-69
2023/02/21 04:05:46;;;;;;;14.10;4.60;;;;;;;10.07;100.00;100591.91;5052738;28;20552;-69
2023/02/21 04:08:12;;;;;;;16.63;5.87;;;;;;;10.17;100.00;100601.75;5052619;28;20488;-69
2023/02/21 04:10:39;;;;;;;14.43;5.50;;;;;;;10.16;100.00;100600.16;5052646;28;20879;-69
2023/02/21 04:13:08;;;;;;;17.13;5.97;;;;;;;10.17;100.00;100609.88;5052535;28;20573;-69
2023/02/21 04:15:34;;;;;;;17.07;5.13;;;;;;;10.19;100.00;100607.69;5052568;28;20447;-67
2023/02/21 04:18:01;;;;;;;14.77;5.40;;;;;;;10.23;100.00;100603.31;5052615;28;20441;-69
2023/02/21 04:20:27;;;;;;;15.23;4.67;;;;;;;10.23;100.00;100616.03;5052601;28;20533;-69
2023/02/21 04:22:54;;;;;;;13.73;5.50;;;;;;;10.25;100.00;100617.34;5052206;28;20524;-69
2023/02/21 04:25:21;;;;;;;13.53;5.13;;;;;;;10.25;100.00;100611.94;5052301;28;20458;-69
2023/02/21 04:27:47;;;;;;;13.93;5.50;;;;;;;10.25;100.00;100617.34;5052162;28;20482;-69
2023/02/21 04:30:15;;;;;;;16.27;4.77;;;;;;;10.24;100.00;100620.34;5052211;28;20481;-69
2023/02/21 04:32:42;;;;;;;11.33;4.77;;;;;;;10.30;100.00;100621.88;5052371;28;20500;-69
2023/02/21 04:35:08;;;;;;;10.97;3.90;;;;;;;10.16;100.00;100629.94;5052509;28;20438;-69
2023/02/21 04:37:35;;;;;;;12.10;4.83;;;;;;;10.17;100.00;100623.41;5055716;28;20462;-69
2023/02/21 04:40:02;;;;;;;10.33;4.40;;;;;;;10.16;100.00;100629.94;5056117;28;20539;-69
2023/02/21 04:42:28;;;;;;;12.30;4.40;;;;;;;10.15;100.00;100619.41;5055612;28;20528;-68
2023/02/21 04:44:55;;;;;;;12.87;5.00;;;;;;;10.13;100.00;100625.09;5055688;28;20787;-68
2023/02/21 04:47:23;;;;;;;16.20;5.80;;;;;;;10.07;100.00;100624.41;5055575;28;20517;-68
2023/02/21 04:49:50;;;;;;;14.43;4.70;;;;;;;10.07;100.00;100627.09;5056156;28;20788;-68
2023/02/21 04:52:19;;;;;;;14.03;4.37;;;;;;;9.96;100.00;100622.97;5055584;28;21053;-69
2023/02/21 04:54:46;;;;;;;14.20;5.20;;;;;;;9.95;100.00;100617.84;5055746;28;20462;-69
2023/02/21 04:57:13;;;;;;;12.10;4.50;;;;;;;9.91;100.00;100619.53;5055776;28;20792;-69
2023/02/21 04:59:39;;;;;;;12.37;4.63;;;;;;;9.93;100.00;100622.75;5055627;28;20446;-69
2023/02/21 05:02:07;;;;;;;12.63;5.37;;;;;;;9.88;100.00;100612.03;5055379;28;20553;-68
2023/02/21 05:04:35;;;;;;;12.40;4.63;;;;;;;9.90;100.00;100615.22;5055512;28;20473;-68
2023/02/21 05:07:02;;;;;;;14.13;4.77;;;;;;;9.81;100.00;100623.22;5055230;28;21037;-69
2023/02/21 05:09:29;;;;;;;11.33;4.40;;;;;;;9.81;100.00;100613.19;5055178;28;20450;-69
2023/02/21 05:11:55;;;;;;;15.67;5.13;;;;;;;9.75;100.00;100630.59;5055493;28;20449;-68
2023/02/21 05:14:22;;;;;;;13.03;4.63;;;;;;;9.76;100.00;100624.09;5055065;28;21026;-69
2023/02/21 05:16:49;;;;;;;13.73;5.00;;;;;;;9.76;100.00;100629.50;5055456;28;20519;-69
2023/02/21 05:19:25;;;;;;;12.60;4.80;;;;;;;9.78;100.00;100618.38;5055359;28;20442;-69
2023/02/21 05:21:54;;;;;;;12.57;4.50;;;;;;;9.69;100.00;100628.25;5055042;28;20426;-69
2023/02/21 05:24:21;;;;;;;12.63;5.07;;;;;;;9.72;100.00;100625.78;5054807;28;20470;-69
2023/02/21 05:26:48;;;;;;;11.30;5.57;;;;;;;9.72;100.00;100624.97;5055088;28;20442;-69
2023/02/21 05:29:15;;;;;;;12.33;5.40;;;;;;;9.74;100.00;100622.78;5055201;28;20450;-67
2023/02/21 05:31:41;;;;;;;16.17;4.70;;;;;;;9.70;100.00;100621.78;5054861;28;20978;-68
2023/02/21 05:34:08;;;;;;;15.03;5.63;;;;;;;9.71;100.00;100624.19;5054977;28;20494;-69
2023/02/21 05:36:35;;;;;;;9.87;3.77;;;;;;;9.68;100.00;100613.94;5054673;28;20522;-69
2023/02/21 05:39:03;;;;;;;10.13;3.83;;;;;;;9.70;100.00;100627.97;5054521;28;20444;-68
2023/02/21 05:41:57;;;;;;;12.03;4.50;;;;;;;9.70;100.00;100630.69;5054840;28;20544;-68
2023/02/21 05:44:23;;;;;;;11.33;4.10;;;;;;;9.65;100.00;100640.75;5048236;28;20474;-69
2023/02/21 05:46:50;;;;;;;11.90;4.13;;;;;;;9.64;100.00;100631.84;5054567;28;20474;-69
2023/02/21 05:49:16;;;;;;;12.70;5.13;;;;;;;9.67;100.00;100628.56;5054120;28;20854;-68
2023/02/21 05:51:44;;;;;;;14.00;4.97;;;;;;;9.64;100.00;100628.34;5054708;28;20465;-70
2023/02/21 05:54:16;;;;;;;12.13;4.90;;;;;;;9.60;100.00;100641.63;5054683;28;20464;-69
2023/02/21 05:56:44;;;;;;;14.40;5.23;;;;;;;9.60;100.00;100644.34;5054624;28;20518;-68
2023/02/21 05:59:11;;;;;;;10.33;3.90;;;;;;;9.53;100.00;100660.94;5054657;28;20445;-69
2023/02/21 06:01:38;;;;;;;8.97;3.27;;;;;;;9.48;100.00;100654.81;5054595;28;20449;-69
2023/02/21 06:04:06;;;;;;;10.67;4.17;;;;;;;9.46;100.00;100655.09;5054477;28;20513;-69
2023/02/21 06:06:33;;;;;;;11.23;4.17;;;;;;;9.46;100.00;100660.50;5054204;28;20935;-69
2023/02/21 06:08:59;;;;;;;15.47;5.10;;;;;;;9.52;100.00;100663.94;5054365;28;20573;-69
2023/02/21 06:11:30;;;;;;;13.70;5.43;;;;;;;9.46;100.00;100659.69;5054324;28;20446;-69
2023/02/21 06:13:58;;;;;;;8.60;3.30;;;;;;;9.46;100.00;100673.22;5053995;28;20991;-69
2023/02/21 06:16:25;;;;;;;13.40;4.57;;;;;;;9.47;100.00;100672.09;5054260;28;20466;-69
2023/02/21 06:18:53;;;;;;;12.00;4.13;;;;;;;9.46;100.00;100675.91;5053922;28;20449;-69
2023/02/21 06:21:20;;;;;;;13.40;4.80;;;;;;;9.51;100.00;100683.94;5053894;28;20958;-70
2023/02/21 06:23:47;;;;;;;9.90;4.00;;;;;;;9.49;100.00;100681.56;5053675;28;20580;-69
2023/02/21 06:26:15;;;;;;;13.77;4.40;;;;;;;9.43;100.00;100676.50;5064527;22;21034;-75
2023/02/21 06:28:43;;;;;;;8.53;3.10;;;;;;;9.41;100.00;100684.09;5034369;28;20511;-75
2023/02/21 06:31:10;;;;;;;10.00;3.63;;;;;;;9.44;100.00;100689.72;5034404;28;20435;-74
2023/02/21 06:33:36;;;;;;;10.60;3.67;;;;;;;9.43;100.00;100685.44;5034347;28;20835;-75
2023/02/21 06:36:05;;;;;;;9.60;3.70;;;;;;;9.39;100.00;100697.13;5034146;28;20467;-76
2023/02/21 06:38:32;;;;;;;11.63;3.83;;;;;;;9.40;100.00;100698.72;5034357;28;20442;-76
2023/02/21 06:40:59;;;;;;;10.53;4.03;;;;;;;9.47;100.00;100701.84;5034270;28;20451;-76
2023/02/21 06:43:25;;;;;;;12.70;3.93;;;;;;;9.45;100.00;100701.34;5034004;28;20804;-76
2023/02/21 06:45:53;;;;;;;12.53;3.77;;;;;;;9.44;100.00;100713.25;5033981;28;20470;-76
2023/02/21 06:48:20;;;;;;;13.10;4.03;;;;;;;9.41;100.00;100711.13;5034082;28;20541;-76
2023/02/21 06:50:46;;;;;;;12.20;3.87;;;;;;;9.44;100.00;100710.56;5034238;28;20483;-75
2023/02/21 06:53:14;;;;;;;8.93;3.27;;;;;;;9.44;100.00;100724.09;5033621;28;20884;-75
2023/02/21 06:55:40;;;;;;;11.40;3.73;;;;;;;9.50;100.00;100722.91;5033936;28;20474;-75
2023/02/21 06:58:07;;;;;;;11.77;4.23;;;;;;;9.47;100.00;100716.16;5033719;28;20442;-73
2023/02/21 07:00:33;;;;;;;10.07;3.70;;;;;;;9.44;100.00;100726.78;5032588;28;20971;-73
2023/02/21 07:03:01;;;;;;;8.60;3.30;;;;;;;9.47;100.00;100726.97;5033448;28;20815;-75
2023/02/21 07:05:33;;;;;;;8.23;2.70;;;;;;;9.49;100.00;100730.22;5033601;28;20509;-75
2023/02/21 07:08:00;;;;;;;9.87;3.07;;;;;;;9.44;100.00;100732.19;5033789;28;20471;-75
2023/02/21 07:10:26;;;;;;;11.50;3.87;;;;;;;9.52;100.00;100732.34;5033883;28;20447;-76
2023/02/21 07:12:53;;;;;;;11.50;3.70;;;;;;;9.50;100.00;100747.25;5033951;28;20626;-77
2023/02/21 07:15:19;;;;;;;9.60;3.87;;;;;;;9.47;100.00;100750.50;5033677;28;20477;-76
2023/02/21 07:17:46;;;;;;;9.80;3.00;;;;;;;9.46;100.00;100748.91;5033438;28;20470;-75
2023/02/21 07:20:14;;;;;;;8.00;2.97;;;;;;;9.45;100.00;100763.53;5033820;28;20478;-76
2023/02/21 07:22:40;;;;;;;8.17;2.83;;;;;;;9.39;100.00;100768.22;5034580;28;20445;-75
2023/02/21 07:25:07;;;;;;;9.37;3.00;;;;;;;9.46;100.00;100781.34;5033443;28;20475;-76
2023/02/21 07:27:34;;;;;;;9.00;3.70;;;;;;;9.51;100.00;100773.19;5033546;28;20526;-76
2023/02/21 07:30:00;;;;;;;9.57;3.00;;;;;;;9.54;100.00;100786.13;5033542;28;20451;-74
2023/02/21 07:32:27;;;;;;;8.50;2.53;;;;;;;9.57;100.00;100790.97;5033219;28;20963;-75
2023/02/21 07:34:54;;;;;;;8.47;2.67;;;;;;;9.58;100.00;100789.88;5033207;28;20479;-68
2023/02/21 07:37:22;;;;;;;9.03;3.17;;;;;;;9.54;100.00;100794.25;5033354;28;20534;-74
2023/02/21 07:39:48;;;;;;;8.37;3.00;;;;;;;9.50;100.00;100796.72;5033420;28;20489;-74
2023/02/21 07:42:15;;;;;;;8.83;2.93;;;;;;;9.49;100.00;100789.72;5033655;28;20455;-74
2023/02/21 07:44:41;;;;;;;10.07;2.80;;;;;;;9.57;100.00;100782.84;5033151;28;20443;-74
2023/02/21 07:47:09;;;;;;;5.93;2.00;;;;;;;9.58;100.00;100798.00;5033064;28;20960;-74
2023/02/21 07:49:38;;;;;;;7.40;2.10;;;;;;;9.55;100.00;100799.34;5032889;28;20541;-74
2023/02/21 07:52:04;;;;;;;7.80;2.33;;;;;;;9.51;100.00;100808.34;5033976;28;20941;-73
2023/02/21 07:54:32;;;;;;;9.50;2.63;;;;;;;9.56;100.00;100808.28;5033615;28;20518;-75
2023/02/21 07:56:59;;;;;;;5.83;1.93;;;;;;;9.59;100.00;100816.63;5033680;28;20466;-74
2023/02/21 07:59:26;;;;;;;6.30;1.80;;;;;;;9.60;100.00;100804.69;5033375;28;20534;-74
2023/02/21 08:01:52;;;;;;;6.60;1.30;;;;;;;9.68;100.00;100811.38;5033710;28;20493;-73
2023/02/21 08:04:20;;;;;;;6.30;1.20;;;;;;;9.66;100.00;100810.88;5033271;28;20542;-72
2023/02/21 08:06:48;;;;;;;5.13;0.97;;;;;;;9.67;100.00;100815.19;5032662;28;20499;-66
2023/02/21 08:09:14;;;;;;;5.87;1.53;;;;;;;9.73;100.00;100821.31;5032556;28;20483;-71
2023/02/21 08:11:42;;;;;;;5.20;1.03;;;;;;;9.74;100.00;100815.66;5034903;28;20443;-71
2023/02/21 08:14:09;;;;;;;5.70;1.30;;;;;;;9.79;100.00;100815.56;5036926;28;20443;-72
2023/02/21 08:16:36;;;;;;;6.60;0.80;;;;;;;9.89;100.00;100819.25;5036666;28;20463;-71
2023/02/21 08:19:04;;;;;;;5.43;0.93;;;;;;;9.93;100.00;100826.50;5036640;28;20471;-71
2023/02/21 08:21:30;;;;;;;4.87;0.77;;;;;;;9.83;100.00;100830.13;5036595;28;20447;-72
2023/02/21 08:23:57;;;;;;;4.87;1.20;;;;;;;9.93;100.00;100833.81;5036686;28;20442;-70
2023/02/21 08:26:25;;;;;;;4.20;0.70;;;;;;;9.95;100.00;100835.09;5036184;28;20485;-69
2023/02/21 08:28:53;;;;;;;5.77;1.40;;;;;;;9.91;100.00;100835.97;5036384;28;20516;-69
2023/02/21 08:31:19;;;;;;;4.50;0.97;;;;;;;9.96;100.00;100841.31;5036349;28;20446;-71
2023/02/21 08:33:46;;;;;;;5.90;1.03;;;;;;;9.93;100.00;100845.44;5036313;28;20844;-71
2023/02/21 08:36:12;;;;;;;5.23;0.83;;;;;;;9.99;100.00;100846.97;5035867;28;20467;-71
2023/02/21 08:38:39;;;;;;;5.23;0.90;;;;;;;9.98;100.00;100839.16;5036360;28;20443;-72
2023/02/21 08:41:06;;;;;;;4.53;0.80;;;;;;;10.10;100.00;100853.88;5036341;28;20451;-72
2023/02/21 08:43:33;;;;;;;4.13;0.50;;;;;;;10.15;100.00;100849.50;5036036;28;20482;-71
2023/02/21 08:46:01;;;;;;;5.30;0.87;;;;;;;10.19;100.00;100859.44;5035966;28;20459;-66
2023/02/21 08:48:28;;;;;;;4.80;0.70;;;;;;;10.14;100.00;100864.94;5039462;28;20506;-73
2023/02/21 08:50:54;;;;;;;4.20;0.60;;;;;;;10.18;100.00;100868.66;5041008;28;20440;-72
2023/02/21 08:53:21;;;;;;;4.77;0.93;;;;;;;10.17;100.00;100858.91;5040132;28;20443;-71
2023/02/21 08:55:47;;;;;;;5.23;1.10;;;;;;;10.17;100.00;100875.16;5039280;28;20541;-71
2023/02/21 08:58:14;;;;;;;4.13;0.63;;;;;;;10.16;100.00;100873.56;5038167;28;20474;-71
2023/02/21 09:00:41;;;;;;;4.13;0.50;;;;;;;10.18;100.00;100865.97;5036230;28;20519;-70
2023/02/21 09:03:09;;;;;;;4.30;0.60;;;;;;;10.05;100.00;100866.66;5035866;28;20442;-70
2023/02/21 09:05:36;;;;;;;5.90;1.10;;;;;;;10.16;100.00;100872.75;5039363;28;20895;-73
2023/02/21 09:08:04;;;;;;;4.40;0.70;;;;;;;10.16;100.00;100861.91;5036093;28;20530;-71
2023/02/21 09:10:33;;;;;;;5.20;0.90;;;;;;;10.11;100.00;100887.16;5036270;28;20444;-71
2023/02/21 09:13:00;;;;;;;6.30;1.27;;;;;;;10.20;100.00;100887.31;5035513;28;20443;-71
2023/02/21 09:15:26;;;;;;;4.70;1.07;;;;;;;10.10;100.00;100883.66;5035432;28;20474;-72
2023/02/21 09:17:53;;;;;;;4.50;0.73;;;;;;;10.14;100.00;100880.34;5035510;28;20515;-71
2023/02/21 09:20:24;;;;;;;4.80;0.70;;;;;;;10.18;100.00;100882.19;5035608;28;20454;-71
2023/02/21 09:22:51;;;;;;;4.53;0.80;;;;;;;10.13;100.00;100887.66;5034065;28;20420;-72
2023/02/21 09:25:21;;;;;;;4.80;1.00;;;;;;;10.10;99.39;100890.97;5035089;28;20487;-72
2023/02/21 09:27:48;;;;;;;5.23;1.30;;;;;;;10.04;99.09;100881.28;5035431;28;20428;-72
2023/02/21 09:30:17;;;;;;;5.23;0.90;;;;;;;10.12;99.39;100888.75;5035273;28;20930;-71
2023/02/21 09:32:44;;;;;;;6.10;1.00;;;;;;;10.16;99.85;100883.56;5035409;28;20494;-72
2023/02/21 09:35:13;;;;;;;6.63;0.80;;;;;;;10.16;100.00;100910.66;5035179;28;20461;-71
2023/02/21 09:37:43;;;;;;;5.80;0.90;;;;;;;10.18;99.88;100898.44;5034990;28;20979;-68
2023/02/21 09:40:17;;;;;;;4.83;0.83;;;;;;;10.23;100.00;100900.28;5035141;28;20439;-70
2023/02/21 09:42:44;;;;;;;7.30;1.23;;;;;;;10.34;99.89;100901.75;5035291;28;20430;-70
2023/02/21 09:45:15;;;;;;;4.83;0.93;;;;;;;10.40;98.07;100905.19;5035210;28;20459;-69
2023/02/21 09:47:45;;;;;;;6.30;1.10;;;;;;;10.44;95.66;100903.53;5034996;28;20432;-70
2023/02/21 09:50:15;;;;;;;4.53;0.80;;;;;;;10.35;93.70;100906.06;5034878;28;20488;-69
2023/02/21 09:52:42;;;;;;;5.00;1.00;;;;;;;10.22;94.75;100904.06;5034934;28;20450;-70
2023/02/21 09:55:21;;;;;;;8.07;1.00;;;;;;;10.41;95.06;100907.63;5034515;28;20485;-70
2023/02/21 09:57:47;;;;;;;7.07;1.40;;;;;;;10.50;94.47;100924.03;5034350;28;20438;-70
2023/02/21 10:00:19;;;;;;;4.27;0.70;;;;;;;10.58;92.18;100910.66;5034290;28;20537;-69
2023/02/21 10:02:56;;;;;;;4.60;0.80;;;;;;;10.61;93.69;100907.34;5034198;28;20447;-71
2023/02/21 10:05:38;;;;;;;4.20;0.50;;;;;;;10.70;92.42;100912.91;5034065;28;20545;-70
2023/02/21 10:08:15;;;;;;;5.03;0.90;;;;;;;10.69;92.43;100911.28;5034204;28;20497;-70
2023/02/21 10:10:46;;;;;;;5.93;1.13;;;;;;;10.74;92.78;100911.22;5033805;28;20904;-68
2023/02/21 10:13:26;;;;;;;5.30;1.13;;;;;;;10.88;93.01;100911.28;5033925;28;20520;-67
2023/02/21 10:15:59;;;;;;;9.97;1.63;;;;;;;11.03;92.00;100905.63;5033880;28;20877;-69
2023/02/21 10:18:34;;;;;;;4.30;0.70;;;;;;;11.15;91.86;100902.44;5034005;28;20482;-70
2023/02/21 10:21:04;;;;;;;5.93;1.20;;;;;;;11.23;90.66;100903.66;5033629;28;20520;-70
2023/02/21 10:23:37;;;;;;;7.70;0.80;;;;;;;11.33;90.27;100909.75;5033833;28;20442;-70
2023/02/21 10:26:08;;;;;;;6.00;1.10;;;;;;;11.29;92.75;100916.06;5033390;28;21035;-69
2023/02/21 10:28:35;;;;;;;4.83;0.60;;;;;;;11.34;90.67;100924.91;5033468;28;20497;-70
2023/02/21 10:31:08;;;;;;;5.07;0.87;;;;;;;11.36;89.92;100932.72;5033456;28;20828;-70
2023/02/21 10:33:37;;;;;;;5.40;0.80;;;;;;;11.35;89.31;100928.41;5033443;28;20466;-70
2023/02/21 10:36:11;;;;;;;5.40;0.63;;;;;;;11.40;89.63;100930.22;5033504;28;20558;-68
2023/02/21 10:38:42;;;;;;;4.43;0.87;;;;;;;11.29;90.04;100932.31;5033505;28;20512;-69
2023/02/21 10:41:12;;;;;;;4.40;0.80;;;;;;;11.30;88.81;100925.78;5033664;28;20526;-69
2023/02/21 10:43:43;;;;;;;7.50;1.13;;;;;;;11.18;88.45;100936.28;5033820;28;20441;-71
2023/02/21 10:46:17;;;;;;;4.30;0.73;;;;;;;11.15;90.19;100929.53;5033147;28;20467;-70
2023/02/21 10:48:46;;;;;;;4.90;0.87;;;;;;;11.27;89.16;100929.88;5033753;28;20475;-71
2023/02/21 10:51:15;;;;;;;5.70;0.70;;;;;;;11.26;89.83;100939.13;5033400;28;20450;-70
2023/02/21 10:53:45;;;;;;;4.40;0.70;;;;;;;11.26;89.32;100932.91;5033277;28;20509;-70
2023/02/21 10:56:38;;;;;;;4.57;0.60;;;;;;;11.33;86.80;100933.31;5033074;28;20521;-71
2023/02/21 10:59:07;;;;;;;6.27;0.90;;;;;;;10.97;88.72;100941.22;5014770;28;20558;-71
2023/02/21 11:01:38;;;;;;;5.47;0.77;;;;;;;11.15;88.80;100943.09;5032973;28;20446;-68
2023/02/21 11:04:07;;;;;;;5.50;0.80;;;;;;;11.22;90.09;100935.41;5033277;28;20442;-69
2023/02/21 11:06:37;;;;;;;9.00;1.30;;;;;;;11.03;89.66;100940.06;5033064;28;20495;-70
2023/02/21 11:09:29;;;;;;;5.10;0.90;;;;;;;11.27;86.84;100948.88;5032940;28;20486;-70
2023/02/21 11:12:01;;;;;;;4.10;0.60;;;;;;;11.31;85.61;100943.66;5033127;28;20948;-70
2023/02/21 11:14:29;;;;;;;8.93;1.23;;;;;;;11.31;85.44;100943.66;5032793;28;20420;-70
2023/02/21 11:17:14;;;;;;;16.20;0.80;;;;;;;11.24;86.21;100927.75;5032600;28;20892;-70
2023/02/21 11:19:50;;;;;;;11.70;1.30;;;;;;;11.28;85.21;100950.47;5033003;28;20886;-71
2023/02/21 11:22:20;;;;;;;7.70;1.10;;;;;;;11.23;85.18;100933.50;5033326;28;20514;-72
2023/02/21 11:24:58;;;;;;;5.53;0.83;;;;;;;11.09;83.14;100941.59;5032280;28;20994;-71
2023/02/21 11:27:26;;;;;;;5.03;0.83;;;;;;;11.24;82.18;100933.19;5032521;28;20924;-70
2023/02/21 11:29:54;;;;;;;6.13;0.70;;;;;;;11.19;82.13;100938.69;5032615;28;20482;-70
2023/02/21 11:32:28;;;;;;;6.00;0.97;;;;;;;11.34;82.34;100935.75;5032333;28;20447;-70
2023/02/21 11:35:03;;;;;;;7.63;0.90;;;;;;;11.37;82.47;100939.75;5032394;28;20427;-69
2023/02/21 11:37:31;;;;;;;12.93;1.00;;;;;;;11.84;81.90;100935.16;5032677;28;20464;-70
2023/02/21 11:40:00;;;;;;;6.90;2.00;;;;;;;12.10;80.41;100932.75;5032513;28;20476;-70
2023/02/21 11:42:29;;;;;;;6.50;1.10;;;;;;;12.30;80.37;100926.06;5032401;28;20546;-71
2023/02/21 11:45:12;;;;;;;6.30;0.83;;;;;;;12.31;77.37;100928.50;5032774;28;20550;-71
2023/02/21 11:47:45;;;;;;;9.20;1.73;;;;;;;12.21;77.21;100947.72;5036432;28;20463;-69
2023/02/21 11:50:22;;;;;;;6.67;0.93;;;;;;;11.94;75.45;100936.84;5036692;28;20554;-68
2023/02/21 11:52:56;;;;;;;4.60;0.80;;;;;;;11.68;77.86;100940.00;5036753;28;20887;-71
2023/02/21 11:55:25;;;;;;;4.70;0.80;;;;;;;11.37;79.87;100927.00;5036657;28;20466;-70
2023/02/21 11:58:01;;;;;;;5.13;0.83;;;;;;;11.41;78.76;100931.84;5036262;28;20936;-70
2023/02/21 12:00:34;;;;;;;4.73;0.90;;;;;;;11.18;79.91;100947.94;5036505;28;20427;-70
2023/02/21 12:03:16;;;;;;;8.33;1.20;;;;;;;11.17;81.01;100943.63;5036656;28;20833;-70
2023/02/21 12:05:53;;;;;;;5.37;1.13;;;;;;;11.49;78.06;100961.00;5036088;28;20984;-69
2023/02/21 12:08:45;;;;;;;4.97;0.83;;;;;;;11.76;78.99;100952.91;5036418;28;20431;-70
2023/02/21 12:11:37;;;;;;;7.47;1.10;;;;;;;11.77;78.93;100949.06;5036335;28;20471;-70
2023/02/21 12:14:16;;;;;;;6.43;1.23;;;;;;;11.71;78.70;100949.47;5036436;28;20427;-71
2023/02/21 12:16:54;;;;;;;8.10;0.90;;;;;;;11.58;79.42;100960.00;5035980;28;20473;-70
2023/02/21 12:19:39;;;;;;;9.63;1.17;;;;;;;11.39;78.54;100948.41;5035872;28;20761;-69
2023/02/21 12:22:16;;;;;;;6.83;1.30;;;;;;;11.34;79.69;100948.50;5036487;28;20427;-70
2023/02/21 12:24:59;;;;;;;6.90;0.90;;;;;;;11.49;80.06;100958.28;5035934;28;20859;-70
2023/02/21 12:27:38;;;;;;;8.67;1.57;;;;;;;11.62;78.60;100950.16;5036201;28;20461;-72
2023/02/21 12:30:26;;;;;;;11.30;1.33;;;;;;;11.70;79.36;100945.97;5036167;28;20463;-70
2023/02/21 12:33:03;;;;;;;13.50;1.47;;;;;;;11.89;77.22;100956.78;5036265;28;20489;-70
2023/02/21 12:36:11;;;;;;;6.07;1.23;;;;;;;12.20;76.43;100951.53;5035589;28;20983;-70
2023/02/21 12:38:45;;;;;;;7.03;1.03;;;;;;;12.23;76.19;100953.66;5035801;28;20423;-70
2023/02/21 12:41:25;;;;;;;9.80;1.20;;;;;;;12.70;73.16;100957.00;5035520;28;20980;-69
2023/02/21 12:44:00;;;;;;;4.77;0.90;;;;;;;13.08;70.83;100954.75;5035859;28;20463;-68
2023/02/21 12:46:32;;;;;;;5.00;1.10;;;;;;;13.35;70.50;100955.78;5035414;28;20940;-70
2023/02/21 12:49:06;;;;;;;13.93;1.07;;;;;;;13.44;68.33;100940.31;5035728;28;20768;-69
2023/02/21 12:51:38;;;;;;;6.27;1.00;;;;;;;13.26;69.09;100947.56;5035786;28;20799;-67
2023/02/21 12:54:10;;;;;;;7.13;1.63;;;;;;;13.02;69.68;100958.72;5035237;28;20431;-68
2023/02/21 12:56:44;;;;;;;6.43;1.13;;;;;;;12.77;71.02;100946.50;5035241;28;20458;-66
2023/02/21 12:59:18;;;;;;;4.80;0.90;;;;;;;12.61;70.99;100945.25;5035215;28;20919;-69
2023/02/21 13:01:49;;;;;;;12.83;1.53;;;;;;;12.46;72.12;100946.38;5035320;28;20438;-68
2023/02/21 13:04:24;;;;;;;6.63;1.03;;;;;;;12.24;72.93;100949.03;5035051;28;20439;-68
2023/02/21 13:06:56;;;;;;;5.80;0.87;;;;;;;12.08;73.06;100949.31;5035085;28;20482;-69
2023/02/21 13:09:30;;;;;;;11.23;1.83;;;;;;;12.12;72.20;100952.25;5034864;28;20427;-70
2023/02/21 13:12:09;;;;;;;4.80;0.90;;;;;;;12.19;72.20;100949.13;5035404;28;20806;-69
2023/02/21 13:14:43;;;;;;;10.63;1.47;;;;;;;12.02;73.60;100952.44;5034753;28;20587;-68
2023/02/21 13:17:12;;;;;;;6.77;1.10;;;;;;;12.05;72.96;100944.50;5035033;28;20481;-66
2023/02/21 13:19:46;;;;;;;5.90;1.03;;;;;;;12.10;71.76;100943.59;5034579;28;20470;-67
2023/02/21 13:22:37;;;;;;;5.07;0.90;;;;;;;12.18;73.11;100937.47;5034823;28;20458;-66
2023/02/21 13:25:14;;;;;;;6.93;0.90;;;;;;;12.30;73.53;100935.03;5034406;28;20471;-66
2023/02/21 13:27:54;;;;;;;4.60;0.70;;;;;;;12.33;72.65;100931.72;5034629;28;20478;-67
2023/02/21 13:30:27;;;;;;;6.13;1.07;;;;;;;12.42;72.33;100939.16;5034554;28;20499;-66
2023/02/21 13:32:56;;;;;;;5.07;0.97;;;;;;;12.35;72.25;100932.22;5034802;28;20432;-66
2023/02/21 13:35:30;;;;;;;4.90;0.97;;;;;;;12.29;72.13;100940.78;5034735;28;20521;-66
2023/02/21 13:37:58;;;;;;;6.27;0.83;;;;;;;12.06;72.49;100929.03;5034612;28;20454;-66
2023/02/21 13:40:32;;;;;;;22.90;1.47;;;;;;;12.00;72.76;100930.25;5034641;28;20587;-67
2023/02/21 13:43:03;;;;;;;6.27;1.30;;;;;;;11.64;75.00;100928.16;5034717;28;20493;-66
2023/02/21 13:45:31;;;;;;;5.97;1.00;;;;;;;11.73;75.54;100920.13;5034488;28;20463;-64
2023/02/21 13:48:22;;;;;;;14.23;1.23;;;;;;;11.64;75.51;100933.56;5034426;28;20439;-66
2023/02/21 13:50:50;;;;;;;4.70;0.60;;;;;;;11.66;76.57;100919.72;5034165;28;20856;-67